createdAt,value
2022-08-16T00:00:04.405Z,99.90
2022-08-16T00:02:33.719Z,99.90
2022-08-16T00:05:02.229Z,99.90
2022-08-16T00:07:30.063Z,99.90
2022-08-16T00:09:59.220Z,99.90
2022-08-16T00:12:27.995Z,99.90
2022-08-16T00:14:56.371Z,99.90
2022-08-16T00:17:25.384Z,99.90
2022-08-16T00:19:53.789Z,99.90
2022-08-16T00:22:25.685Z,99.90
2022-08-16T00:24:55.230Z,99.90
2022-08-16T00:27:23.343Z,99.90
2022-08-16T00:30:00.595Z,99.90
2022-08-16T00:32:35.848Z,99.90
2022-08-16T00:35:02.971Z,99.90
2022-08-16T00:37:56.862Z,99.90
2022-08-16T00:40:43.781Z,99.90
2022-08-16T00:43:42.520Z,99.90
2022-08-16T00:46:33.731Z,99.90
2022-08-16T00:49:02.503Z,99.90
2022-08-16T00:51:29.792Z,99.90
2022-08-16T00:53:57.096Z,99.90
2022-08-16T00:56:56.432Z,99.90
2022-08-16T00:59:19.135Z,99.90
2022-08-16T01:01:46.820Z,99.90
2022-08-16T01:04:29.033Z,99.90
2022-08-16T01:07:02.864Z,99.90
2022-08-16T01:09:37.141Z,99.90
2022-08-16T01:12:08.468Z,99.90
2022-08-16T01:14:45.321Z,99.90
2022-08-16T01:17:15.666Z,99.90
2022-08-16T01:19:46.479Z,99.90
2022-08-16T01:22:47.669Z,99.90
2022-08-16T01:25:22.427Z,99.90
2022-08-16T01:28:07.508Z,99.90
2022-08-16T01:30:49.756Z,99.90
2022-08-16T01:33:19.491Z,99.90
2022-08-16T01:36:12.001Z,99.90
2022-08-16T01:38:48.904Z,99.90
2022-08-16T01:41:24.819Z,99.90
2022-08-16T01:43:54.471Z,99.90
2022-08-16T01:46:37.316Z,99.90
2022-08-16T01:49:20.154Z,99.90
2022-08-16T01:51:57.769Z,99.90
2022-08-16T01:54:30.929Z,99.90
2022-08-16T01:56:59.191Z,99.90
2022-08-16T01:59:27.326Z,99.90
2022-08-16T02:02:00.365Z,99.90
2022-08-16T02:04:49.345Z,99.90
2022-08-16T02:07:18.587Z,99.90
2022-08-16T02:09:58.864Z,99.90
2022-08-16T02:12:45.828Z,99.90
2022-08-16T02:15:25.210Z,99.90
2022-08-16T02:17:54.669Z,99.90
2022-08-16T02:20:26.308Z,99.90
2022-08-16T02:22:59.694Z,99.90
2022-08-16T02:25:51.114Z,99.90
2022-08-16T02:28:19.353Z,99.90
2022-08-16T02:30:50.796Z,99.90
2022-08-16T02:33:18.432Z,99.90
2022-08-16T02:35:53.949Z,99.90
2022-08-16T02:38:26.340Z,99.90
2022-08-16T02:40:54.502Z,99.90
2022-08-16T02:43:26.933Z,99.90
2022-08-16T02:45:55.357Z,99.90
2022-08-16T02:48:29.502Z,99.90
2022-08-16T02:51:06.573Z,99.90
2022-08-16T02:53:43.367Z,99.90
2022-08-16T02:56:14.602Z,99.90
2022-08-16T02:58:44.063Z,99.90
2022-08-16T03:01:24.287Z,99.90
2022-08-16T03:04:41.328Z,99.90
2022-08-16T03:06:48.599Z,99.90
2022-08-16T03:09:18.298Z,99.90
2022-08-16T03:11:47.566Z,99.90
2022-08-16T03:14:20.904Z,99.90
2022-08-16T03:17:00.142Z,99.90
2022-08-16T03:19:48.134Z,99.90
2022-08-16T03:22:28.078Z,99.90
2022-08-16T03:24:58.745Z,99.90
2022-08-16T03:27:31.362Z,99.90
2022-08-16T03:30:16.681Z,99.90
2022-08-16T03:32:51.205Z,99.90
2022-08-16T03:35:21.836Z,99.90
2022-08-16T03:38:02.518Z,99.90
2022-08-16T03:40:33.401Z,99.90
2022-08-16T03:43:20.563Z,99.90
2022-08-16T03:45:52.470Z,99.90
2022-08-16T03:48:21.091Z,99.90
2022-08-16T03:51:08.113Z,99.90
2022-08-16T03:53:37.755Z,99.90
2022-08-16T03:56:07.903Z,99.90
2022-08-16T03:58:37.044Z,99.90
2022-08-16T04:01:05.330Z,99.90
2022-08-16T04:03:33.023Z,99.90
2022-08-16T04:06:00.144Z,99.90
2022-08-16T04:08:31.443Z,99.90
2022-08-16T04:11:03.779Z,99.90
2022-08-16T04:13:59.115Z,99.90
2022-08-16T04:16:27.480Z,99.90
2022-08-16T04:19:02.658Z,99.90
2022-08-16T04:21:46.035Z,99.90
2022-08-16T04:24:15.000Z,99.90
2022-08-16T04:26:45.882Z,99.90
2022-08-16T04:29:15.271Z,99.90
2022-08-16T04:31:56.785Z,99.90
2022-08-16T04:34:30.707Z,99.90
2022-08-16T04:37:01.347Z,99.90
2022-08-16T04:39:37.009Z,99.90
2022-08-16T04:42:17.889Z,99.90
2022-08-16T04:44:54.320Z,99.90
2022-08-16T04:47:31.637Z,99.90
2022-08-16T04:50:01.699Z,99.90
2022-08-16T04:52:35.119Z,99.90
2022-08-16T04:55:15.674Z,99.90
2022-08-16T04:57:43.867Z,99.90
2022-08-16T05:00:30.917Z,99.90
2022-08-16T05:03:07.054Z,99.90
2022-08-16T05:05:36.837Z,99.90
2022-08-16T05:08:28.482Z,99.90
2022-08-16T05:11:01.371Z,99.90
2022-08-16T05:13:40.417Z,99.90
2022-08-16T05:16:21.756Z,99.90
2022-08-16T05:18:52.498Z,99.90
2022-08-16T05:21:20.842Z,99.90
2022-08-16T05:23:56.059Z,99.90
2022-08-16T05:26:29.861Z,99.90
2022-08-16T05:28:58.248Z,99.90
2022-08-16T05:31:29.977Z,99.90
2022-08-16T05:34:03.702Z,99.90
2022-08-16T05:36:33.921Z,99.90
2022-08-16T05:39:03.258Z,99.90
2022-08-16T05:41:30.887Z,99.90
2022-08-16T05:44:05.226Z,99.90
2022-08-16T05:46:32.972Z,99.90
2022-08-16T05:49:05.862Z,99.90
2022-08-16T05:51:41.534Z,99.90
2022-08-16T05:54:13.992Z,99.90
2022-08-16T05:56:42.972Z,99.90
2022-08-16T05:59:10.796Z,99.90
2022-08-16T06:01:39.281Z,99.90
2022-08-16T06:04:12.916Z,99.90
2022-08-16T06:06:56.876Z,99.90
2022-08-16T06:09:42.571Z,99.90
2022-08-16T06:12:28.033Z,99.90
2022-08-16T06:15:04.550Z,99.90
2022-08-16T06:17:41.415Z,99.90
2022-08-16T06:20:14.961Z,99.90
2022-08-16T06:22:47.661Z,99.90
2022-08-16T06:25:35.493Z,99.90
2022-08-16T06:28:08.856Z,99.90
2022-08-16T06:30:43.918Z,99.90
2022-08-16T06:33:19.662Z,99.90
2022-08-16T06:35:50.496Z,99.90
2022-08-16T06:38:33.292Z,99.90
2022-08-16T06:41:04.221Z,99.90
2022-08-16T06:43:32.383Z,99.90
2022-08-16T06:46:00.474Z,99.90
2022-08-16T06:48:33.211Z,99.90
2022-08-16T06:51:05.599Z,99.90
2022-08-16T06:53:35.458Z,99.70
2022-08-16T06:56:14.846Z,98.10
2022-08-16T06:58:52.705Z,97.60
2022-08-16T07:01:44.748Z,96.60
2022-08-16T07:04:12.227Z,95.80
2022-08-16T07:06:43.306Z,94.50
2022-08-16T07:09:12.708Z,93.60
2022-08-16T07:11:47.330Z,93.60
2022-08-16T07:14:26.384Z,92.00
2022-08-16T07:16:58.222Z,90.40
2022-08-16T07:20:01.494Z,87.20
2022-08-16T07:22:37.742Z,88.00
2022-08-16T07:25:04.143Z,88.80
2022-08-16T07:27:33.663Z,89.60
2022-08-16T07:30:46.707Z,89.40
2022-08-16T07:32:56.411Z,90.00
2022-08-16T07:35:24.234Z,87.90
2022-08-16T07:37:52.126Z,87.90
2022-08-16T07:40:19.235Z,86.40
2022-08-16T07:42:53.104Z,84.50
2022-08-16T07:45:20.895Z,85.10
2022-08-16T07:47:51.174Z,86.50
2022-08-16T07:50:56.042Z,82.20
2022-08-16T07:53:05.963Z,81.50
2022-08-16T07:55:45.676Z,80.30
2022-08-16T07:58:18.060Z,77.90
2022-08-16T08:00:46.122Z,74.20
2022-08-16T08:03:13.263Z,72.40
2022-08-16T08:05:42.136Z,70.20
2022-08-16T08:08:11.542Z,68.60
2022-08-16T08:10:39.207Z,68.20
2022-08-16T08:13:06.364Z,67.10
2022-08-16T08:15:37.178Z,66.30
2022-08-16T08:18:29.678Z,66.40
2022-08-16T08:20:59.593Z,68.60
2022-08-16T08:23:27.774Z,69.50
2022-08-16T08:25:55.941Z,69.80
2022-08-16T08:28:23.271Z,70.70
2022-08-16T08:31:01.404Z,70.90
2022-08-16T08:33:31.679Z,70.90
2022-08-16T08:36:01.268Z,69.60
2022-08-16T08:38:44.073Z,70.60
2022-08-16T08:41:18.442Z,68.60
2022-08-16T08:43:50.329Z,67.50
2022-08-16T08:46:21.503Z,68.30
2022-08-16T08:48:59.571Z,67.40
2022-08-16T08:51:35.589Z,66.60
2022-08-16T08:54:09.280Z,67.40
2022-08-16T08:56:45.255Z,64.90
2022-08-16T08:59:20.551Z,64.30
2022-08-16T09:01:56.684Z,62.40
2022-08-16T09:04:26.928Z,62.70
2022-08-16T09:06:54.844Z,63.60
2022-08-16T09:09:23.081Z,63.10
2022-08-16T09:12:00.216Z,64.50
2022-08-16T09:14:34.271Z,66.30
2022-08-16T09:17:11.399Z,67.90
2022-08-16T09:19:41.435Z,68.80
2022-08-16T09:22:21.002Z,66.90
2022-08-16T09:24:53.612Z,64.60
2022-08-16T09:27:25.342Z,61.40
2022-08-16T09:29:59.835Z,63.60
2022-08-16T09:32:30.514Z,63.00
2022-08-16T09:34:59.907Z,61.50
2022-08-16T09:37:29.861Z,62.60
2022-08-16T09:39:59.704Z,63.00
2022-08-16T09:42:29.016Z,63.80
2022-08-16T09:45:11.180Z,62.40
2022-08-16T09:47:57.094Z,59.80
2022-08-16T09:50:36.830Z,61.80
2022-08-16T09:53:15.346Z,62.70
2022-08-16T09:55:49.540Z,65.00
2022-08-16T09:58:40.482Z,65.80
2022-08-16T10:01:08.382Z,65.40
2022-08-16T10:03:36.135Z,63.00
2022-08-16T10:06:03.479Z,60.80
2022-08-16T10:08:31.647Z,59.10
2022-08-16T10:11:50.103Z,58.70
2022-08-16T10:14:19.845Z,59.50
2022-08-16T10:17:00.135Z,58.80
2022-08-16T10:19:31.931Z,61.30
2022-08-16T10:22:04.578Z,61.60
2022-08-16T10:24:33.427Z,62.20
2022-08-16T10:27:25.336Z,62.00
2022-08-16T10:29:59.423Z,60.20
2022-08-16T10:32:32.067Z,59.30
2022-08-16T10:35:00.227Z,59.00
2022-08-16T10:37:32.508Z,62.10
2022-08-16T10:40:29.344Z,61.00
2022-08-16T10:43:00.337Z,58.70
2022-08-16T10:45:36.894Z,58.80
2022-08-16T10:48:27.713Z,58.70
2022-08-16T10:50:58.335Z,60.20
2022-08-16T10:53:32.702Z,60.40
2022-08-16T10:56:02.539Z,62.00
2022-08-16T10:58:34.314Z,60.70
2022-08-16T11:03:54.146Z,59.70
2022-08-16T11:06:26.793Z,57.50
2022-08-16T11:14:34.630Z,61.30
2022-08-16T11:17:10.913Z,63.60
2022-08-16T11:22:47.139Z,65.10
2022-08-16T11:28:08.178Z,65.40
2022-08-16T11:30:38.664Z,65.10
2022-08-16T11:33:06.848Z,63.90
2022-08-16T11:38:51.501Z,61.40
2022-08-16T11:41:10.896Z,60.70
2022-08-16T11:43:40.606Z,60.40
2022-08-16T11:46:44.878Z,61.00
2022-08-16T11:49:01.149Z,61.30
2022-08-16T11:51:28.601Z,62.70
2022-08-16T11:53:55.945Z,63.20
2022-08-16T11:56:40.024Z,65.20
2022-08-16T11:59:10.468Z,65.70
2022-08-16T12:01:55.481Z,66.10
2022-08-16T12:04:26.918Z,65.80
2022-08-16T12:06:54.758Z,66.20
2022-08-16T12:09:24.831Z,65.60
2022-08-16T12:11:57.738Z,63.80
2022-08-16T12:14:24.896Z,63.50
2022-08-16T12:16:56.981Z,62.80
2022-08-16T12:19:33.676Z,62.00
2022-08-16T12:22:01.339Z,62.60
2022-08-16T12:24:33.241Z,60.10
2022-08-16T12:27:01.523Z,59.50
2022-08-16T12:29:29.909Z,59.90
2022-08-16T12:32:01.224Z,59.70
2022-08-16T12:34:50.543Z,61.40
2022-08-16T12:37:21.637Z,61.50
2022-08-16T12:39:56.159Z,60.60
2022-08-16T12:42:34.509Z,58.30
2022-08-16T12:45:07.698Z,57.90
2022-08-16T12:48:10.001Z,58.60
2022-08-16T12:50:40.984Z,59.40
2022-08-16T12:53:08.055Z,58.30
2022-08-16T12:55:41.681Z,58.30
2022-08-16T12:58:14.133Z,57.30
2022-08-16T13:00:57.556Z,56.30
2022-08-16T13:03:25.182Z,55.70
2022-08-16T13:05:55.799Z,56.60
2022-08-16T13:08:30.559Z,55.30
2022-08-16T13:10:58.723Z,55.20
2022-08-16T13:13:26.987Z,54.90
2022-08-16T13:16:03.447Z,54.30
2022-08-16T13:18:35.705Z,53.80
2022-08-16T13:21:07.993Z,53.20
2022-08-16T13:23:43.394Z,53.50
2022-08-16T13:26:12.858Z,53.50
2022-08-16T13:28:46.100Z,54.20
2022-08-16T13:31:13.404Z,54.70
2022-08-16T13:33:43.929Z,55.60
2022-08-16T13:36:21.403Z,56.70
2022-08-16T13:39:00.115Z,57.30
2022-08-16T13:41:30.153Z,57.70
2022-08-16T13:44:00.557Z,57.50
2022-08-16T13:46:28.434Z,56.00
2022-08-16T13:48:57.579Z,54.30
2022-08-16T13:51:25.064Z,52.90
2022-08-16T13:54:02.857Z,52.50
2022-08-16T13:56:38.140Z,51.90
2022-08-16T13:59:20.164Z,51.90
2022-08-16T14:01:55.511Z,49.10
2022-08-16T14:04:34.134Z,51.20
2022-08-16T14:07:04.475Z,51.60
2022-08-16T14:09:32.479Z,50.10
2022-08-16T14:12:01.043Z,50.20
2022-08-16T14:14:32.875Z,50.30
2022-08-16T14:17:02.178Z,49.70
2022-08-16T14:19:30.204Z,49.90
2022-08-16T14:22:13.511Z,48.90
2022-08-16T14:24:45.303Z,48.30
2022-08-16T14:27:15.741Z,48.50
2022-08-16T14:29:44.416Z,50.00
2022-08-16T14:32:13.358Z,49.10
2022-08-16T14:35:00.555Z,49.80
2022-08-16T14:37:27.870Z,50.50
2022-08-16T14:39:58.184Z,50.90
2022-08-16T14:42:26.457Z,50.80
2022-08-16T14:44:54.206Z,50.90
2022-08-16T14:47:22.655Z,50.60
2022-08-16T14:49:52.362Z,49.70
2022-08-16T14:52:52.001Z,49.30
2022-08-16T14:55:11.891Z,49.00
2022-08-16T14:57:39.732Z,49.50
2022-08-16T15:00:11.560Z,49.00
2022-08-16T15:02:40.429Z,49.10
2022-08-16T15:05:09.553Z,49.10
2022-08-16T15:07:47.348Z,49.30
2022-08-16T15:10:23.952Z,49.10
2022-08-16T15:12:56.271Z,48.20
2022-08-16T15:15:27.998Z,48.60
2022-08-16T15:17:56.464Z,48.80
2022-08-16T15:20:29.613Z,50.10
2022-08-16T15:22:59.014Z,50.90
2022-08-16T15:25:41.012Z,51.60
2022-08-16T15:28:23.505Z,52.30
2022-08-16T15:31:00.853Z,53.30
2022-08-16T15:33:33.209Z,53.60
2022-08-16T15:36:00.652Z,53.30
2022-08-16T15:38:43.525Z,52.80
2022-08-16T15:41:53.963Z,52.30
2022-08-16T15:44:22.997Z,52.30
2022-08-16T15:46:54.717Z,52.80
2022-08-16T15:49:37.047Z,53.80
2022-08-16T15:52:07.715Z,53.60
2022-08-16T15:54:52.193Z,51.60
2022-08-16T15:57:27.295Z,50.20
2022-08-16T15:59:55.758Z,49.70
2022-08-16T16:02:29.694Z,49.30
2022-08-16T16:05:04.339Z,47.90
2022-08-16T16:07:33.255Z,46.70
2022-08-16T16:10:02.575Z,45.90
2022-08-16T16:12:50.283Z,46.20
2022-08-16T16:15:19.236Z,45.40
2022-08-16T16:17:46.840Z,44.50
2022-08-16T16:20:19.647Z,44.60
2022-08-16T16:22:47.298Z,44.40
2022-08-16T16:25:16.060Z,45.80
2022-08-16T16:27:45.342Z,45.90
2022-08-16T16:30:33.428Z,45.90
2022-08-16T16:33:02.951Z,45.40
2022-08-16T16:35:32.676Z,45.30
2022-08-16T16:38:00.140Z,45.90
2022-08-16T16:40:32.841Z,45.60
2022-08-16T16:43:00.872Z,45.50
2022-08-16T16:45:34.565Z,46.00
2022-08-16T16:48:12.362Z,45.50
2022-08-16T16:50:45.263Z,46.80
2022-08-16T16:53:17.474Z,47.80
2022-08-16T16:55:52.097Z,49.20
2022-08-16T16:58:38.678Z,50.40
2022-08-16T17:01:08.156Z,51.20
2022-08-16T17:03:35.823Z,52.50
2022-08-16T17:06:09.179Z,53.10
2022-08-16T17:08:41.352Z,53.90
2022-08-16T17:11:10.033Z,54.00
2022-08-16T17:13:38.736Z,54.80
2022-08-16T17:16:06.011Z,55.60
2022-08-16T17:19:16.745Z,55.70
2022-08-16T17:21:24.403Z,56.40
2022-08-16T17:26:38.805Z,57.40
2022-08-16T17:29:11.222Z,57.80
2022-08-16T17:31:43.243Z,58.00
2022-08-16T17:34:31.077Z,57.90
2022-08-16T17:37:04.968Z,58.30
2022-08-16T17:39:28.182Z,57.00
2022-08-16T17:39:45.222Z,58.60
2022-08-16T17:42:25.373Z,60.00
2022-08-16T17:44:52.883Z,60.80
2022-08-16T17:47:22.064Z,61.50
2022-08-16T17:49:49.303Z,62.30
2022-08-16T17:52:17.411Z,63.40
2022-08-16T17:54:45.227Z,63.80
2022-08-16T17:57:13.526Z,64.40
2022-08-16T17:59:44.195Z,64.90
2022-08-16T18:02:43.741Z,65.50
2022-08-16T18:04:58.888Z,65.80
2022-08-16T18:07:26.307Z,66.70
2022-08-16T18:09:53.412Z,66.90
2022-08-16T18:12:51.296Z,67.60
2022-08-16T18:15:14.124Z,67.90
2022-08-16T18:17:42.102Z,68.20
2022-08-16T18:20:33.823Z,68.80
2022-08-16T18:23:17.882Z,69.30
2022-08-16T18:25:54.271Z,70.20
2022-08-16T18:28:22.126Z,71.50
2022-08-16T18:30:51.979Z,72.40
2022-08-16T18:33:22.455Z,72.40
2022-08-16T18:35:52.100Z,73.30
2022-08-16T18:38:22.820Z,74.30
2022-08-16T18:40:50.567Z,74.90
2022-08-16T18:43:21.095Z,75.30
2022-08-16T18:46:08.102Z,76.00
2022-08-16T18:48:35.134Z,76.60
2022-08-16T18:51:09.243Z,77.60
2022-08-16T18:53:38.618Z,78.10
2022-08-16T18:56:05.957Z,78.60
2022-08-16T18:58:34.051Z,79.00
2022-08-16T19:01:01.200Z,79.80
2022-08-16T19:03:31.975Z,80.50
2022-08-16T19:06:05.751Z,81.60
2022-08-16T19:08:36.990Z,81.90
2022-08-16T19:11:05.748Z,82.30
2022-08-16T19:13:33.663Z,83.50
2022-08-16T19:16:02.951Z,83.90
2022-08-16T19:18:36.706Z,84.30
2022-08-16T19:21:05.154Z,85.00
2022-08-16T19:23:35.864Z,85.80
2022-08-16T19:26:25.950Z,86.30
2022-08-16T19:28:59.837Z,86.60
2022-08-16T19:31:33.733Z,87.00
2022-08-16T19:34:03.998Z,87.40
2022-08-16T19:36:37.242Z,87.60
2022-08-16T19:39:09.007Z,88.30
2022-08-16T19:41:40.330Z,88.90
2022-08-16T19:44:07.993Z,89.20
2022-08-16T19:46:35.755Z,89.50
2022-08-16T19:49:03.632Z,90.00
2022-08-16T19:51:30.820Z,90.00
2022-08-16T19:53:57.843Z,90.20
2022-08-16T19:56:26.955Z,90.50
2022-08-16T20:01:43.538Z,91.40
2022-08-16T20:04:12.738Z,91.40
2022-08-16T20:06:40.998Z,91.60
2022-08-16T20:09:08.223Z,91.90
2022-08-16T20:11:37.547Z,91.90
2022-08-16T20:14:05.714Z,91.80
2022-08-16T20:16:32.843Z,91.50
2022-08-16T20:18:59.932Z,91.60
2022-08-16T20:21:28.539Z,91.50
2022-08-16T20:24:09.886Z,91.70
2022-08-16T20:26:43.282Z,91.70
2022-08-16T20:29:10.402Z,91.80
2022-08-16T20:31:37.483Z,91.80
2022-08-16T20:34:04.518Z,91.90
2022-08-16T20:36:31.566Z,92.00
2022-08-16T20:39:00.292Z,91.90
2022-08-16T20:41:27.611Z,91.80
2022-08-16T20:43:55.026Z,91.90
2022-08-16T20:46:22.581Z,92.00
2022-08-16T20:48:49.923Z,92.10
2022-08-16T20:51:17.414Z,92.20
2022-08-16T20:53:44.768Z,92.30
2022-08-16T20:56:12.528Z,92.50
2022-08-16T20:58:39.807Z,92.60
2022-08-16T21:01:08.104Z,92.70
2022-08-16T21:03:35.912Z,93.00
2022-08-16T21:06:03.955Z,93.20
2022-08-16T21:08:51.855Z,93.50
2022-08-16T21:11:20.135Z,93.70
2022-08-16T21:13:47.624Z,93.80
2022-08-16T21:16:16.549Z,94.00
2022-08-16T21:18:43.598Z,94.10
2022-08-16T21:21:12.245Z,94.10
2022-08-16T21:23:39.445Z,94.20
2022-08-16T21:26:08.372Z,94.50
2022-08-16T21:28:42.763Z,94.60
2022-08-16T21:31:11.778Z,94.90
2022-08-16T21:33:39.345Z,95.60
2022-08-16T21:36:06.578Z,95.50
2022-08-16T21:38:33.651Z,95.90
2022-08-16T21:41:02.523Z,96.20
2022-08-16T21:43:32.775Z,96.40
2022-08-16T21:46:04.601Z,97.00
2022-08-16T21:48:34.928Z,97.20
2022-08-16T21:51:11.672Z,97.40
2022-08-16T21:53:39.394Z,97.80
2022-08-16T21:56:07.360Z,98.20
2022-08-16T21:58:37.041Z,98.70
2022-08-16T22:01:04.720Z,99.00
2022-08-16T22:03:35.474Z,99.30
2022-08-16T22:06:13.188Z,99.50
2022-08-16T22:08:49.082Z,99.90
2022-08-16T22:11:22.836Z,99.90
2022-08-16T22:13:57.692Z,99.90
2022-08-16T22:16:28.586Z,99.90
2022-08-16T22:18:55.773Z,99.90
2022-08-16T22:21:22.890Z,99.90
2022-08-16T22:23:56.902Z,99.90
2022-08-16T22:26:30.862Z,99.90
2022-08-16T22:29:04.731Z,99.90
2022-08-16T22:31:32.636Z,99.90
2022-08-16T22:34:01.940Z,99.90
2022-08-16T22:36:29.966Z,99.90
2022-08-16T22:38:59.145Z,99.90
2022-08-16T22:41:28.492Z,99.90
2022-08-16T22:43:56.242Z,99.90
2022-08-16T22:46:23.644Z,99.90
2022-08-16T22:48:51.096Z,99.90
2022-08-16T22:51:23.339Z,99.90
2022-08-16T22:53:51.017Z,99.90
2022-08-16T22:56:18.347Z,99.90
2022-08-16T22:58:47.019Z,99.90
2022-08-16T23:01:15.563Z,99.90
2022-08-16T23:03:43.087Z,99.90
2022-08-16T23:06:12.495Z,99.90
2022-08-16T23:08:41.467Z,99.90
2022-08-16T23:11:21.153Z,99.90
2022-08-16T23:13:53.442Z,99.90
2022-08-16T23:16:33.094Z,99.90
2022-08-16T23:19:07.684Z,99.90
2022-08-16T23:21:37.325Z,99.90
2022-08-16T23:24:06.050Z,99.90
2022-08-16T23:26:46.735Z,99.90
2022-08-16T23:29:24.833Z,99.90
2022-08-16T23:32:08.914Z,99.90
2022-08-16T23:34:35.915Z,99.90
2022-08-16T23:37:03.020Z,99.90
2022-08-16T23:39:30.056Z,99.90
2022-08-16T23:41:57.086Z,99.90
2022-08-16T23:44:56.896Z,99.90
2022-08-16T23:47:11.188Z,99.90
2022-08-16T23:49:57.315Z,99.90
2022-08-16T23:52:42.369Z,99.90
2022-08-16T23:55:12.528Z,99.90
2022-08-16T23:57:39.561Z,99.90
